createdAt,value
2022-07-25T00:01:55.798Z,20.00
2022-07-25T00:04:23.816Z,19.90
2022-07-25T00:06:51.071Z,19.70
2022-07-25T00:09:18.899Z,19.60
2022-07-25T00:11:45.774Z,19.50
2022-07-25T00:14:12.659Z,19.40
2022-07-25T00:16:40.097Z,19.30
2022-07-25T00:19:06.976Z,19.20
2022-07-25T00:21:33.993Z,19.20
2022-07-25T00:24:00.757Z,19.10
2022-07-25T00:26:27.836Z,19.10
2022-07-25T00:28:54.786Z,19.00
2022-07-25T00:31:21.643Z,18.90
2022-07-25T00:33:48.586Z,18.80
2022-07-25T00:36:15.373Z,18.80
2022-07-25T00:38:42.163Z,18.70
2022-07-25T00:41:08.984Z,18.70
2022-07-25T00:43:35.789Z,18.70
2022-07-25T00:46:02.931Z,18.60
2022-07-25T00:48:30.122Z,18.60
2022-07-25T00:50:57.167Z,18.50
2022-07-25T00:53:25.265Z,18.50
2022-07-25T00:55:52.643Z,18.50
2022-07-25T00:58:19.737Z,18.40
2022-07-25T01:00:47.435Z,18.40
2022-07-25T01:03:14.818Z,18.40
2022-07-25T01:05:42.391Z,18.30
2022-07-25T01:08:10.267Z,18.30
2022-07-25T01:10:37.547Z,18.30
2022-07-25T01:13:04.838Z,18.30
2022-07-25T01:15:32.236Z,18.30
2022-07-25T01:17:59.700Z,18.30
2022-07-25T01:20:28.351Z,18.30
2022-07-25T01:22:55.716Z,18.30
2022-07-25T01:25:23.407Z,18.30
2022-07-25T01:27:55.558Z,18.40
2022-07-25T01:30:24.071Z,18.30
2022-07-25T01:32:51.244Z,18.30
2022-07-25T01:35:18.149Z,18.20
2022-07-25T01:37:45.458Z,18.20
2022-07-25T01:40:14.378Z,18.20
2022-07-25T01:42:42.299Z,18.10
2022-07-25T01:45:10.476Z,18.10
2022-07-25T01:47:37.357Z,18.10
2022-07-25T01:50:05.610Z,18.10
2022-07-25T01:52:32.497Z,18.10
2022-07-25T01:54:59.417Z,18.00
2022-07-25T01:57:30.797Z,18.00
2022-07-25T01:59:58.310Z,17.90
2022-07-25T02:02:25.211Z,17.90
2022-07-25T02:04:52.277Z,17.90
2022-07-25T02:07:19.212Z,17.90
2022-07-25T02:09:46.041Z,17.80
2022-07-25T02:12:12.948Z,17.80
2022-07-25T02:14:40.122Z,17.80
2022-07-25T02:17:07.144Z,17.80
2022-07-25T02:19:34.372Z,17.80
2022-07-25T02:22:01.433Z,17.80
2022-07-25T02:24:28.345Z,17.90
2022-07-25T02:26:55.210Z,18.00
2022-07-25T02:29:22.299Z,18.10
2022-07-25T02:31:49.417Z,18.30
2022-07-25T02:34:16.446Z,18.50
2022-07-25T02:36:43.423Z,18.70
2022-07-25T02:39:10.266Z,19.00
2022-07-25T02:41:37.210Z,19.20
2022-07-25T02:44:05.616Z,19.40
2022-07-25T02:46:33.312Z,19.60
2022-07-25T02:49:00.306Z,19.80
2022-07-25T02:51:27.124Z,19.90
2022-07-25T02:53:57.567Z,19.90
2022-07-25T02:56:25.140Z,19.90
2022-07-25T02:58:51.978Z,20.00
2022-07-25T03:01:18.924Z,19.90
2022-07-25T03:03:46.072Z,20.00
2022-07-25T03:06:12.991Z,19.90
2022-07-25T03:08:39.762Z,19.90
2022-07-25T03:11:06.587Z,19.80
2022-07-25T03:13:33.606Z,19.70
2022-07-25T03:16:00.837Z,19.50
2022-07-25T03:18:27.700Z,19.40
2022-07-25T03:20:54.452Z,19.20
2022-07-25T03:23:21.326Z,19.00
2022-07-25T03:25:48.331Z,18.90
2022-07-25T03:28:15.172Z,18.80
2022-07-25T03:30:41.939Z,18.70
2022-07-25T03:33:10.179Z,18.60
2022-07-25T03:35:39.812Z,18.50
2022-07-25T03:38:06.862Z,18.40
2022-07-25T03:40:33.660Z,18.40
2022-07-25T03:43:00.440Z,18.30
2022-07-25T03:45:27.294Z,18.30
2022-07-25T03:47:54.196Z,18.10
2022-07-25T03:50:21.023Z,18.00
2022-07-25T03:52:47.836Z,18.00
2022-07-25T03:55:14.757Z,17.90
2022-07-25T03:57:41.594Z,17.90
2022-07-25T04:00:10.507Z,17.80
2022-07-25T04:02:38.103Z,17.70
2022-07-25T04:05:06.854Z,17.70
2022-07-25T04:07:34.108Z,17.70
2022-07-25T04:10:00.903Z,17.60
2022-07-25T04:12:27.776Z,17.60
2022-07-25T04:14:54.591Z,17.60
2022-07-25T04:17:21.477Z,17.60
2022-07-25T04:19:48.372Z,17.50
2022-07-25T04:22:15.887Z,17.60
2022-07-25T04:24:43.015Z,17.60
2022-07-25T04:27:10.053Z,17.60
2022-07-25T04:29:36.857Z,17.60
2022-07-25T04:32:03.969Z,17.70
2022-07-25T04:34:31.101Z,17.80
2022-07-25T04:36:58.108Z,17.80
2022-07-25T04:39:24.956Z,17.80
2022-07-25T04:41:51.764Z,17.80
2022-07-25T04:44:18.685Z,17.90
2022-07-25T04:46:45.577Z,18.00
2022-07-25T04:49:12.446Z,18.10
2022-07-25T04:51:39.308Z,18.10
2022-07-25T04:54:07.248Z,18.20
2022-07-25T04:56:34.346Z,18.30
2022-07-25T04:59:06.568Z,18.40
2022-07-25T05:01:34.880Z,18.50
2022-07-25T05:04:02.022Z,18.60
2022-07-25T05:06:29.134Z,18.70
2022-07-25T05:08:55.967Z,18.80
2022-07-25T05:11:22.889Z,18.80
2022-07-25T05:13:49.737Z,18.90
2022-07-25T05:16:16.695Z,19.00
2022-07-25T05:18:43.864Z,19.10
2022-07-25T05:21:14.157Z,19.20
2022-07-25T05:23:41.208Z,19.20
2022-07-25T05:26:08.266Z,19.30
2022-07-25T05:28:35.203Z,19.40
2022-07-25T05:31:02.085Z,19.40
2022-07-25T05:33:28.984Z,19.50
2022-07-25T05:35:55.960Z,19.60
2022-07-25T05:38:22.934Z,19.70
2022-07-25T05:40:52.086Z,19.80
2022-07-25T05:43:19.227Z,19.90
2022-07-25T05:45:47.345Z,20.10
2022-07-25T05:48:14.976Z,20.30
2022-07-25T05:50:41.944Z,20.50
2022-07-25T05:53:08.909Z,20.70
2022-07-25T05:55:35.653Z,21.00
2022-07-25T05:58:07.604Z,21.20
2022-07-25T06:00:34.394Z,21.40
2022-07-25T06:03:01.362Z,21.70
2022-07-25T06:05:28.281Z,21.90
2022-07-25T06:07:55.275Z,22.20
2022-07-25T06:10:22.906Z,22.50
2022-07-25T06:12:49.709Z,22.70
2022-07-25T06:15:22.635Z,22.90
2022-07-25T06:17:54.736Z,23.20
2022-07-25T06:20:22.132Z,23.30
2022-07-25T06:22:49.052Z,23.50
2022-07-25T06:25:15.925Z,23.70
2022-07-25T06:27:43.781Z,23.90
2022-07-25T06:30:19.725Z,24.10
2022-07-25T06:32:50.678Z,24.30
2022-07-25T06:35:18.250Z,24.50
2022-07-25T06:37:45.368Z,24.70
2022-07-25T06:40:12.976Z,24.90
2022-07-25T06:42:41.491Z,25.00
2022-07-25T06:45:10.729Z,25.20
2022-07-25T06:47:38.589Z,25.40
2022-07-25T06:50:07.438Z,25.60
2022-07-25T06:52:34.806Z,25.80
2022-07-25T06:55:02.671Z,26.00
2022-07-25T06:57:29.506Z,26.20
2022-07-25T06:59:56.411Z,26.50
2022-07-25T07:02:23.378Z,26.70
2022-07-25T07:04:50.461Z,26.90
2022-07-25T07:07:17.537Z,27.20
2022-07-25T07:09:44.516Z,27.50
2022-07-25T07:12:11.519Z,27.80
2022-07-25T07:14:38.420Z,28.10
2022-07-25T07:17:05.716Z,28.30
2022-07-25T07:19:32.556Z,28.40
2022-07-25T07:21:59.728Z,28.50
2022-07-25T07:24:26.761Z,28.70
2022-07-25T07:26:54.790Z,28.80
2022-07-25T07:29:21.787Z,29.00
2022-07-25T07:31:49.070Z,29.10
2022-07-25T07:34:16.659Z,29.30
2022-07-25T07:36:43.854Z,29.50
2022-07-25T07:39:10.898Z,29.80
2022-07-25T07:41:37.739Z,30.10
2022-07-25T07:44:05.671Z,30.50
2022-07-25T07:46:32.624Z,31.00
2022-07-25T07:48:59.501Z,31.40
2022-07-25T07:51:26.402Z,31.50
2022-07-25T07:54:11.968Z,31.80
2022-07-25T07:56:39.426Z,32.30
2022-07-25T07:59:06.760Z,32.70
2022-07-25T08:01:35.009Z,33.10
2022-07-25T08:04:02.981Z,33.20
2022-07-25T08:06:30.783Z,33.40
2022-07-25T08:09:00.009Z,33.80
2022-07-25T08:11:26.927Z,34.10
2022-07-25T08:13:53.763Z,34.30
2022-07-25T08:16:20.647Z,34.60
2022-07-25T08:18:48.539Z,35.00
2022-07-25T08:21:15.539Z,35.20
2022-07-25T08:23:44.989Z,35.50
2022-07-25T08:26:14.127Z,35.70
2022-07-25T08:28:41.310Z,35.90
2022-07-25T08:31:08.170Z,36.00
2022-07-25T08:33:35.261Z,36.00
2022-07-25T08:36:02.130Z,36.30
2022-07-25T08:38:29.336Z,36.50
2022-07-25T08:40:57.350Z,36.60
2022-07-25T08:43:25.145Z,36.70
2022-07-25T08:45:53.593Z,36.90
2022-07-25T08:48:25.939Z,36.80
2022-07-25T08:50:54.456Z,36.90
2022-07-25T08:53:37.900Z,37.20
2022-07-25T08:56:12.656Z,37.50
2022-07-25T08:58:43.834Z,37.80
2022-07-25T09:01:13.892Z,38.10
2022-07-25T09:03:42.885Z,38.30
2022-07-25T09:06:16.778Z,38.30
2022-07-25T09:08:58.262Z,38.10
2022-07-25T09:11:38.086Z,38.20
2022-07-25T09:14:10.737Z,38.20
2022-07-25T09:16:41.030Z,38.40
2022-07-25T09:19:20.285Z,38.30
2022-07-25T09:22:07.545Z,38.50
2022-07-25T09:24:44.473Z,38.40
2022-07-25T09:27:12.761Z,38.50
2022-07-25T09:29:42.507Z,38.90
2022-07-25T09:32:19.177Z,39.20
2022-07-25T09:34:48.433Z,39.60
2022-07-25T09:37:18.334Z,39.80
2022-07-25T09:39:51.925Z,40.00
2022-07-25T09:42:20.876Z,39.80
2022-07-25T09:45:00.820Z,39.50
2022-07-25T09:47:27.887Z,39.30
2022-07-25T09:49:55.227Z,39.50
2022-07-25T09:52:22.121Z,39.90
2022-07-25T09:54:49.923Z,40.00
2022-07-25T09:57:17.162Z,40.40
2022-07-25T09:59:44.809Z,40.40
2022-07-25T10:02:49.997Z,40.20
2022-07-25T10:05:26.690Z,40.10
2022-07-25T10:07:55.330Z,40.20
2022-07-25T10:10:29.734Z,39.90
2022-07-25T10:13:10.301Z,39.40
2022-07-25T10:15:51.433Z,39.30
2022-07-25T10:18:21.952Z,39.50
2022-07-25T10:20:50.966Z,39.50
2022-07-25T10:23:21.717Z,39.80
2022-07-25T10:26:00.922Z,40.00
2022-07-25T10:28:49.349Z,40.50
2022-07-25T10:31:34.318Z,40.80
2022-07-25T10:34:04.038Z,41.00
2022-07-25T10:36:51.677Z,40.70
2022-07-25T10:39:21.303Z,40.10
2022-07-25T10:42:02.337Z,39.90
2022-07-25T10:44:41.347Z,40.10
2022-07-25T10:47:13.026Z,40.00
2022-07-25T10:49:55.118Z,40.00
2022-07-25T10:52:30.270Z,40.00
2022-07-25T10:55:01.485Z,40.10
2022-07-25T10:57:32.006Z,40.10
2022-07-25T11:00:09.090Z,40.00
2022-07-25T11:02:36.332Z,40.10
2022-07-25T11:05:04.697Z,40.10
2022-07-25T11:07:37.569Z,40.20
2022-07-25T11:10:05.808Z,40.10
2022-07-25T11:12:33.387Z,40.20
2022-07-25T11:15:07.587Z,40.30
2022-07-25T11:17:34.765Z,40.40
2022-07-25T11:20:03.010Z,40.70
2022-07-25T11:22:31.581Z,41.00
2022-07-25T11:24:59.058Z,40.80
2022-07-25T11:27:30.714Z,40.70
2022-07-25T11:30:14.937Z,40.80
2022-07-25T11:32:43.731Z,41.20
2022-07-25T11:35:13.009Z,41.40
2022-07-25T11:37:41.605Z,41.30
2022-07-25T11:40:09.449Z,41.60
2022-07-25T11:42:41.887Z,41.80
2022-07-25T11:45:29.907Z,41.80
2022-07-25T11:48:09.642Z,41.70
2022-07-25T11:50:39.634Z,41.80
2022-07-25T11:53:14.000Z,41.90
2022-07-25T11:55:42.807Z,41.60
2022-07-25T11:58:12.697Z,41.50
2022-07-25T12:00:41.905Z,41.60
2022-07-25T12:03:14.293Z,41.60
2022-07-25T12:05:46.166Z,41.70
2022-07-25T12:08:15.409Z,41.80
2022-07-25T12:10:47.567Z,41.90
2022-07-25T12:13:23.248Z,42.10
2022-07-25T12:15:51.280Z,42.40
2022-07-25T12:18:18.075Z,42.40
2022-07-25T12:20:45.396Z,42.60
2022-07-25T12:23:13.931Z,42.80
2022-07-25T12:25:44.126Z,42.60
2022-07-25T12:28:12.135Z,42.30
2022-07-25T12:30:40.321Z,42.10
2022-07-25T12:33:07.695Z,41.90
2022-07-25T12:35:34.641Z,41.60
2022-07-25T12:38:01.499Z,41.00
2022-07-25T12:40:28.467Z,40.40
2022-07-25T12:42:55.616Z,40.40
2022-07-25T12:45:23.283Z,40.40
2022-07-25T12:47:50.171Z,40.70
2022-07-25T12:50:18.584Z,40.90
2022-07-25T12:52:47.454Z,40.90
2022-07-25T12:55:17.518Z,41.00
2022-07-25T12:57:44.768Z,41.20
2022-07-25T13:00:14.603Z,41.40
2022-07-25T13:02:41.791Z,41.20
2022-07-25T13:05:09.054Z,41.20
2022-07-25T13:07:36.046Z,41.20
2022-07-25T13:10:04.044Z,41.40
2022-07-25T13:12:30.892Z,41.60
2022-07-25T13:14:57.840Z,41.40
2022-07-25T13:17:27.472Z,41.60
2022-07-25T13:19:55.252Z,41.80
2022-07-25T13:22:22.469Z,41.90
2022-07-25T13:24:50.285Z,42.00
2022-07-25T13:27:22.324Z,42.10
2022-07-25T13:30:14.706Z,41.50
2022-07-25T13:32:42.405Z,40.70
2022-07-25T13:35:10.900Z,40.30
2022-07-25T13:37:37.691Z,39.90
2022-07-25T13:40:05.091Z,39.70
2022-07-25T13:42:31.981Z,39.80
2022-07-25T13:44:58.890Z,39.70
2022-07-25T13:47:30.301Z,39.70
2022-07-25T13:50:03.476Z,39.70
2022-07-25T13:52:30.572Z,39.40
2022-07-25T13:54:57.553Z,39.00
2022-07-25T13:57:24.378Z,38.80
2022-07-25T13:59:51.246Z,38.60
2022-07-25T14:02:18.135Z,38.20
2022-07-25T14:04:46.416Z,38.00
2022-07-25T14:07:14.113Z,37.70
2022-07-25T14:09:40.903Z,37.60
2022-07-25T14:12:08.213Z,37.50
2022-07-25T14:14:35.140Z,37.40
2022-07-25T14:17:02.841Z,37.10
2022-07-25T14:19:29.878Z,37.00
2022-07-25T14:21:56.677Z,36.80
2022-07-25T14:24:23.531Z,36.80
2022-07-25T14:26:50.472Z,37.10
2022-07-25T14:29:17.387Z,37.50
2022-07-25T14:31:44.669Z,37.70
2022-07-25T14:34:11.639Z,37.90
2022-07-25T14:36:38.461Z,37.90
2022-07-25T14:39:05.720Z,37.90
2022-07-25T14:41:33.272Z,37.80
2022-07-25T14:44:00.138Z,37.60
2022-07-25T14:46:27.115Z,37.40
2022-07-25T14:48:54.161Z,37.30
2022-07-25T14:51:21.191Z,37.00
2022-07-25T14:53:53.020Z,36.90
2022-07-25T14:56:20.399Z,36.80
2022-07-25T14:58:47.215Z,36.80
2022-07-25T15:01:16.311Z,36.60
2022-07-25T15:03:43.122Z,36.40
2022-07-25T15:06:10.668Z,36.10
2022-07-25T15:08:38.915Z,35.70
2022-07-25T15:11:06.008Z,35.20
2022-07-25T15:13:33.015Z,34.70
2022-07-25T15:16:00.606Z,34.40
2022-07-25T15:18:27.774Z,34.00
2022-07-25T15:20:55.587Z,33.80
2022-07-25T15:23:24.763Z,33.50
2022-07-25T15:26:08.092Z,33.20
2022-07-25T15:28:36.882Z,32.90
2022-07-25T15:31:04.630Z,32.70
2022-07-25T15:33:31.544Z,32.30
2022-07-25T15:35:58.823Z,31.80
2022-07-25T15:38:28.793Z,31.00
2022-07-25T15:40:55.637Z,29.70
2022-07-25T15:43:28.545Z,28.70
2022-07-25T15:45:56.434Z,28.00
2022-07-25T15:48:23.937Z,27.70
2022-07-25T15:50:54.755Z,27.60
2022-07-25T15:53:21.877Z,27.70
2022-07-25T15:55:48.818Z,27.80
2022-07-25T15:58:15.561Z,28.10
2022-07-25T16:00:43.599Z,28.20
2022-07-25T16:03:11.307Z,28.40
2022-07-25T16:05:39.446Z,28.40
2022-07-25T16:08:08.327Z,28.50
2022-07-25T16:10:35.611Z,28.60
2022-07-25T16:13:02.621Z,28.70
2022-07-25T16:15:29.591Z,28.80
2022-07-25T16:18:01.716Z,28.90
2022-07-25T16:20:29.660Z,29.00
2022-07-25T16:22:57.825Z,29.30
2022-07-25T16:25:25.930Z,29.40
2022-07-25T16:27:52.971Z,29.40
2022-07-25T16:30:20.750Z,28.90
2022-07-25T16:32:47.633Z,28.30
2022-07-25T16:35:14.582Z,27.80
2022-07-25T16:37:42.286Z,27.40
2022-07-25T16:40:10.453Z,27.10
2022-07-25T16:42:39.677Z,26.70
2022-07-25T16:45:10.168Z,26.60
2022-07-25T16:47:37.570Z,26.70
2022-07-25T16:50:13.598Z,26.70
2022-07-25T16:52:40.409Z,26.70
2022-07-25T16:55:17.535Z,26.60
2022-07-25T16:58:08.207Z,26.70
2022-07-25T17:00:35.545Z,26.80
2022-07-25T17:03:07.383Z,26.90
2022-07-25T17:06:05.318Z,27.00
2022-07-25T17:08:52.796Z,27.10
2022-07-25T17:11:19.826Z,27.20
2022-07-25T17:13:46.894Z,27.20
2022-07-25T17:16:13.802Z,27.20
2022-07-25T17:18:41.604Z,27.20
2022-07-25T17:21:09.654Z,27.30
2022-07-25T17:23:37.479Z,27.40
2022-07-25T17:26:05.507Z,27.40
2022-07-25T17:28:32.440Z,27.50
2022-07-25T17:30:59.474Z,27.50
2022-07-25T17:33:26.665Z,27.40
2022-07-25T17:35:53.613Z,27.40
2022-07-25T17:38:25.848Z,27.40
2022-07-25T17:40:53.879Z,27.30
2022-07-25T17:43:20.651Z,27.20
2022-07-25T17:45:47.926Z,27.10
2022-07-25T17:48:15.715Z,27.00
2022-07-25T17:50:42.678Z,26.90
2022-07-25T17:53:09.755Z,26.80
2022-07-25T17:55:38.959Z,26.80
2022-07-25T17:58:06.289Z,26.80
2022-07-25T18:00:33.057Z,26.70
2022-07-25T18:03:00.021Z,26.50
2022-07-25T18:05:27.622Z,26.40
2022-07-25T18:07:54.659Z,26.20
2022-07-25T18:10:22.053Z,26.00
2022-07-25T18:12:50.100Z,25.90
2022-07-25T18:15:17.039Z,25.90
2022-07-25T18:17:45.361Z,25.90
2022-07-25T18:20:13.931Z,25.80
2022-07-25T18:22:41.420Z,25.70
2022-07-25T18:25:11.239Z,25.60
2022-07-25T18:27:42.923Z,25.60
2022-07-25T18:30:10.761Z,25.50
2022-07-25T18:32:39.260Z,25.50
2022-07-25T18:35:07.888Z,25.40
2022-07-25T18:37:35.423Z,25.40
2022-07-25T18:40:02.406Z,25.40
2022-07-25T18:42:30.109Z,25.40
2022-07-25T18:44:58.107Z,25.30
2022-07-25T18:47:28.430Z,25.20
2022-07-25T18:49:59.452Z,25.20
2022-07-25T18:52:26.634Z,25.10
2022-07-25T18:54:58.759Z,25.10
2022-07-25T18:57:25.604Z,25.10
2022-07-25T18:59:52.481Z,25.10
2022-07-25T19:02:19.305Z,25.10
2022-07-25T19:04:46.102Z,25.00
2022-07-25T19:07:13.176Z,24.90
2022-07-25T19:09:40.071Z,24.80
2022-07-25T19:12:07.419Z,24.80
2022-07-25T19:14:34.510Z,24.70
2022-07-25T19:17:04.128Z,24.60
2022-07-25T19:19:31.565Z,24.60
2022-07-25T19:21:58.415Z,24.60
2022-07-25T19:24:25.332Z,24.50
2022-07-25T19:26:52.478Z,24.40
2022-07-25T19:29:20.939Z,24.50
2022-07-25T19:31:48.145Z,24.40
2022-07-25T19:34:15.113Z,24.50
2022-07-25T19:36:45.758Z,24.50
2022-07-25T19:39:13.091Z,24.50
2022-07-25T19:41:44.684Z,24.40
2022-07-25T19:44:13.419Z,24.40
2022-07-25T19:46:40.346Z,24.40
2022-07-25T19:49:07.823Z,24.40
2022-07-25T19:51:35.083Z,24.30
2022-07-25T19:54:08.242Z,24.30
2022-07-25T19:56:35.346Z,24.20
2022-07-25T19:59:02.428Z,24.10
2022-07-25T20:01:29.495Z,24.10
2022-07-25T20:03:56.432Z,23.90
2022-07-25T20:06:24.767Z,23.80
2022-07-25T20:08:51.545Z,23.70
2022-07-25T20:11:18.524Z,23.70
2022-07-25T20:13:45.619Z,23.70
2022-07-25T20:16:12.399Z,23.60
2022-07-25T20:18:39.274Z,23.50
2022-07-25T20:21:07.325Z,23.40
2022-07-25T20:23:34.193Z,23.40
2022-07-25T20:26:02.302Z,23.30
2022-07-25T20:28:29.131Z,23.20
2022-07-25T20:30:57.233Z,23.20
2022-07-25T20:33:27.065Z,23.00
2022-07-25T20:35:57.799Z,23.00
2022-07-25T20:38:28.175Z,22.90
2022-07-25T20:40:55.703Z,22.80
2022-07-25T20:43:23.500Z,22.80
2022-07-25T20:45:50.536Z,22.70
2022-07-25T20:48:17.920Z,22.60
2022-07-25T20:50:44.897Z,22.50
2022-07-25T20:53:12.317Z,22.50
2022-07-25T20:55:39.417Z,22.40
2022-07-25T20:58:06.185Z,22.40
2022-07-25T21:00:33.307Z,22.30
2022-07-25T21:03:00.914Z,22.30
2022-07-25T21:05:28.573Z,22.20
2022-07-25T21:07:55.453Z,22.20
2022-07-25T21:10:22.719Z,22.10
2022-07-25T21:12:49.804Z,22.10
2022-07-25T21:15:16.988Z,22.00
2022-07-25T21:17:43.855Z,22.00
2022-07-25T21:20:14.161Z,22.00
2022-07-25T21:22:43.092Z,21.90
2022-07-25T21:25:10.776Z,21.90
2022-07-25T21:27:38.931Z,21.90
2022-07-25T21:30:07.775Z,21.80
2022-07-25T21:32:34.760Z,21.80
2022-07-25T21:35:01.785Z,21.80
2022-07-25T21:37:28.623Z,21.70
2022-07-25T21:39:55.426Z,21.60
2022-07-25T21:42:22.218Z,21.60
2022-07-25T21:44:49.362Z,21.60
2022-07-25T21:47:16.192Z,21.50
2022-07-25T21:50:02.057Z,21.50
2022-07-25T21:52:35.016Z,21.40
2022-07-25T21:55:03.451Z,21.40
2022-07-25T21:57:30.657Z,21.30
2022-07-25T21:59:57.612Z,21.20
2022-07-25T22:02:24.785Z,21.20
2022-07-25T22:04:51.596Z,21.20
2022-07-25T22:07:18.693Z,21.20
2022-07-25T22:09:45.576Z,21.20
2022-07-25T22:12:12.392Z,21.10
2022-07-25T22:14:39.253Z,21.10
2022-07-25T22:17:06.265Z,21.00
2022-07-25T22:19:33.605Z,21.00
2022-07-25T22:22:00.874Z,21.00
2022-07-25T22:24:28.634Z,20.90
2022-07-25T22:26:55.445Z,20.80
2022-07-25T22:29:22.358Z,20.80
2022-07-25T22:31:49.376Z,20.80
2022-07-25T22:34:16.524Z,20.70
2022-07-25T22:36:43.445Z,20.70
2022-07-25T22:39:11.118Z,20.60
2022-07-25T22:41:38.772Z,20.60
2022-07-25T22:44:06.716Z,20.60
2022-07-25T22:46:34.482Z,20.50
2022-07-25T22:49:02.132Z,20.50
2022-07-25T22:51:30.024Z,20.40
2022-07-25T22:53:57.965Z,20.40
2022-07-25T22:56:25.375Z,20.30
2022-07-25T22:58:52.409Z,20.30
2022-07-25T23:01:20.079Z,20.20
2022-07-25T23:03:49.940Z,20.10
2022-07-25T23:06:19.096Z,20.10
2022-07-25T23:08:46.890Z,20.10
2022-07-25T23:11:13.881Z,20.00
2022-07-25T23:13:41.661Z,20.00
2022-07-25T23:16:10.375Z,20.00
2022-07-25T23:18:38.699Z,19.90
2022-07-25T23:21:05.908Z,19.90
2022-07-25T23:23:32.715Z,19.80
2022-07-25T23:25:59.490Z,19.80
2022-07-25T23:28:26.291Z,19.80
2022-07-25T23:30:53.266Z,19.80
2022-07-25T23:33:24.470Z,19.80
2022-07-25T23:35:52.812Z,19.70
2022-07-25T23:38:19.643Z,19.80
2022-07-25T23:40:47.511Z,19.70
2022-07-25T23:43:15.111Z,19.80
2022-07-25T23:45:47.381Z,19.80
2022-07-25T23:48:15.058Z,19.70
2022-07-25T23:50:41.897Z,19.80
2022-07-25T23:53:08.727Z,19.80
2022-07-25T23:55:35.496Z,19.80
2022-07-25T23:58:02.513Z,19.80
